Time;durP1;ratioP1;P1;durP2;ratioP2;P2;SDS_P1;SDS_P2;PMS_P1;PMS_P2;Temp;Humidity;BMP_temperature;BMP_pressure;BME280_temperature;BME280_humidity;BME280_pressure;Samples;Min_cycle;Max_cycle;Signal;HPM_P1;HPM_P2
2023/08/14 00:02:10;;;;;;;10.40;7.60;;;;;;;19.82;81.37;100948.24;106074;1259;98989;-80
2023/08/14 00:04:55;;;;;;;9.30;7.40;;;;;;;19.77;81.46;100944.62;106020;1259;97963;-81
2023/08/14 00:07:41;;;;;;;10.80;7.70;;;;;;;19.74;81.38;100944.23;106017;1260;98494;-82
2023/08/14 00:10:27;;;;;;;8.00;7.20;;;;;;;19.70;81.34;100947.90;106175;1259;103127;-80
2023/08/14 00:13:12;;;;;;;9.50;7.30;;;;;;;19.68;81.43;100941.87;106100;1260;99157;-80
2023/08/14 00:15:58;;;;;;;9.80;7.70;;;;;;;19.65;81.31;100942.34;106149;1263;99145;-81
2023/08/14 00:18:44;;;;;;;8.90;7.40;;;;;;;19.58;81.34;100945.66;106066;1264;97943;-82
2023/08/14 00:21:30;;;;;;;10.60;8.20;;;;;;;19.53;81.47;100944.54;105988;1259;97879;-80
2023/08/14 00:24:15;;;;;;;9.00;8.10;;;;;;;19.49;81.76;100941.97;106151;1259;101342;-80
2023/08/14 00:27:01;;;;;;;9.80;7.50;;;;;;;19.47;81.97;100942.23;106198;1259;99180;-81
2023/08/14 00:29:46;;;;;;;8.70;6.40;;;;;;;19.43;82.16;100950.36;106112;1260;98053;-82
2023/08/14 00:32:32;;;;;;;7.00;6.20;;;;;;;19.38;82.28;100948.11;106205;1259;96428;-82
2023/08/14 00:35:17;;;;;;;8.70;5.70;;;;;;;19.33;82.35;100946.95;106042;1260;98597;-80
2023/08/14 00:38:03;;;;;;;10.90;6.10;;;;;;;19.28;82.43;100945.71;106106;1263;101443;-83
2023/08/14 00:40:49;;;;;;;7.40;5.30;;;;;;;19.21;81.98;100945.83;106173;1259;99170;-83
2023/08/14 00:43:34;;;;;;;6.70;5.10;;;;;;;19.15;82.29;100946.23;106267;1259;98756;-81
2023/08/14 00:46:20;;;;;;;6.40;4.60;;;;;;;19.11;82.50;100949.21;106312;1264;97872;-82
2023/08/14 00:49:07;;;;;;;8.90;4.80;;;;;;;19.07;82.70;100950.81;106070;1260;99249;-80
2023/08/14 00:51:53;;;;;;;5.50;4.50;;;;;;;19.01;82.46;100951.91;106210;1260;101388;-83
2023/08/14 00:54:38;;;;;;;6.10;4.70;;;;;;;18.98;82.71;100953.94;106284;1260;99178;-82
2023/08/14 00:57:24;;;;;;;6.90;5.20;;;;;;;18.97;82.97;100962.59;106114;1260;98903;-82
2023/08/14 01:00:11;;;;;;;8.90;5.70;;;;;;;18.96;83.14;100969.59;106090;1259;98069;-83
2023/08/14 01:02:57;;;;;;;9.70;7.70;;;;;;;18.97;83.48;100974.32;106105;1263;98521;-83
2023/08/14 01:05:42;;;;;;;9.30;7.30;;;;;;;18.95;83.76;100979.00;106231;1260;101390;-83
2023/08/14 01:08:29;;;;;;;8.40;7.10;;;;;;;18.88;83.97;100979.98;106329;1259;99331;-82
2023/08/14 01:11:23;;;;;;;10.80;7.40;;;;;;;18.87;84.44;100976.95;106131;1263;98842;-83
2023/08/14 01:14:19;;;;;;;9.60;7.70;;;;;;;18.90;84.74;100972.09;106052;1259;97973;-81
2023/08/14 01:17:10;;;;;;;8.10;6.90;;;;;;;18.93;84.80;100970.05;106117;1263;98954;-81
2023/08/14 01:19:57;;;;;;;9.50;8.10;;;;;;;18.94;84.93;100962.89;106129;1261;101419;-81
2023/08/14 01:22:45;;;;;;;10.70;7.80;;;;;;;18.93;85.05;100958.27;106082;1260;100072;-81
2023/08/14 01:25:33;;;;;;;8.00;7.20;;;;;;;18.92;85.31;100956.77;106256;1262;99045;-83
2023/08/14 01:28:19;;;;;;;12.00;7.10;;;;;;;18.90;85.17;100955.35;106136;1259;97963;-82
2023/08/14 01:31:05;;;;;;;11.40;8.40;;;;;;;18.87;85.29;100960.83;105939;1260;99647;-82
2023/08/14 01:33:51;;;;;;;12.30;6.80;;;;;;;18.85;85.23;100967.50;106167;1259;101355;-81
2023/08/14 01:36:44;;;;;;;8.70;7.40;;;;;;;18.84;85.53;100977.83;105995;1260;99092;-82
2023/08/14 01:39:41;;;;;;;12.30;7.60;;;;;;;18.82;85.59;100985.11;106153;1259;98067;-80
2023/08/14 01:42:36;;;;;;;9.30;7.20;;;;;;;18.79;85.41;100990.47;106102;1260;98038;-81
2023/08/14 01:45:23;;;;;;;13.50;7.40;;;;;;;18.76;85.95;100999.88;106094;1260;97913;-81
2023/08/14 01:48:11;;;;;;;11.50;6.80;;;;;;;18.70;85.76;101009.80;105907;1259;101542;-80
2023/08/14 01:50:59;;;;;;;10.30;6.60;;;;;;;18.60;85.82;101012.87;106082;1263;99161;-80
2023/08/14 01:53:46;;;;;;;9.80;6.60;;;;;;;18.51;86.06;101013.85;106081;1263;98658;-81
2023/08/14 01:56:32;;;;;;;8.20;5.80;;;;;;;18.46;86.47;101011.11;106495;1260;98898;-81
2023/08/14 01:59:18;;;;;;;9.30;6.00;;;;;;;18.48;86.91;101004.59;106142;1265;97853;-81
2023/08/14 02:02:04;;;;;;;7.10;6.10;;;;;;;18.49;86.69;100994.48;106072;1259;101459;-80
2023/08/14 02:04:49;;;;;;;6.20;5.60;;;;;;;18.49;86.38;100988.77;105971;1259;100448;-82
2023/08/14 02:07:37;;;;;;;7.70;6.00;;;;;;;18.48;86.34;100985.43;106099;1259;98420;-82
2023/08/14 02:10:23;;;;;;;7.00;6.40;;;;;;;18.47;86.51;100989.25;106060;1259;97917;-82
2023/08/14 02:13:08;;;;;;;8.90;5.90;;;;;;;18.46;86.64;100995.14;106032;1262;97982;-81
2023/08/14 02:15:54;;;;;;;11.30;5.50;;;;;;;18.44;86.67;100998.24;105943;1264;101893;-83
2023/08/14 02:18:40;;;;;;;6.90;5.20;;;;;;;18.40;86.25;100999.36;106056;1259;99774;-81
2023/08/14 02:21:25;;;;;;;6.60;5.40;;;;;;;18.36;85.98;100992.56;106204;1259;97986;-83
2023/08/14 02:24:11;;;;;;;9.20;6.30;;;;;;;18.35;86.17;100986.36;106131;1260;97870;-81
2023/08/14 02:26:56;;;;;;;7.00;5.70;;;;;;;18.35;86.16;100985.20;106063;1259;97960;-82
2023/08/14 02:29:42;;;;;;;8.20;5.80;;;;;;;18.34;86.26;100984.91;106224;1259;101459;-81
2023/08/14 02:32:27;;;;;;;9.30;6.60;;;;;;;18.33;86.13;100982.70;106061;1259;99224;-82
2023/08/14 02:35:13;;;;;;;7.80;6.70;;;;;;;18.32;86.23;100983.39;106101;1263;98312;-81
2023/08/14 02:37:58;;;;;;;7.80;6.70;;;;;;;18.32;86.43;100980.94;106028;1260;97919;-83
2023/08/14 02:40:44;;;;;;;9.60;6.70;;;;;;;18.32;86.28;100985.61;106147;1263;98015;-83
2023/08/14 02:43:30;;;;;;;9.50;6.90;;;;;;;18.30;86.73;100987.34;105978;1262;102754;-81
2023/08/14 02:46:15;;;;;;;10.30;6.80;;;;;;;18.27;87.41;100984.36;106225;1263;100566;-83
2023/08/14 02:49:01;;;;;;;7.00;6.40;;;;;;;18.22;87.72;100983.34;106184;1260;97992;-84
2023/08/14 02:51:46;;;;;;;7.20;6.50;;;;;;;18.16;88.24;100980.75;106091;1259;97902;-82
2023/08/14 02:54:32;;;;;;;7.40;6.70;;;;;;;18.11;88.75;100978.32;106151;1259;98453;-83
2023/08/14 02:57:18;;;;;;;12.40;7.60;;;;;;;18.05;89.70;100976.38;106068;1259;101990;-82
2023/08/14 03:00:04;;;;;;;9.40;7.50;;;;;;;18.02;90.84;100973.29;106093;1264;99170;-83
2023/08/14 03:02:50;;;;;;;8.00;7.20;;;;;;;18.01;91.49;100977.96;106074;1259;98841;-82
2023/08/14 03:05:37;;;;;;;9.20;7.50;;;;;;;18.03;92.04;100979.86;106074;1260;98021;-82
2023/08/14 03:08:22;;;;;;;9.00;8.10;;;;;;;18.04;92.84;100978.29;106059;1259;98580;-83
2023/08/14 03:11:08;;;;;;;14.10;8.50;;;;;;;18.04;93.51;100978.10;106097;1264;102687;-82
2023/08/14 03:13:54;;;;;;;11.00;8.30;;;;;;;18.03;93.94;100973.53;106287;1259;99864;-84
2023/08/14 03:16:39;;;;;;;11.50;8.70;;;;;;;18.03;94.19;100972.52;106112;1260;98881;-85
2023/08/14 03:19:25;;;;;;;9.50;8.50;;;;;;;18.03;94.85;100974.70;106186;1264;97897;-82
2023/08/14 03:22:11;;;;;;;10.70;8.90;;;;;;;18.02;95.08;100971.54;106151;1261;98461;-82
2023/08/14 03:24:56;;;;;;;11.90;8.70;;;;;;;18.02;95.67;100969.04;106046;1259;101217;-81
2023/08/14 03:27:41;;;;;;;10.60;9.60;;;;;;;18.02;96.01;100971.45;106146;1260;99709;-83
2023/08/14 03:30:27;;;;;;;12.60;10.40;;;;;;;18.05;96.24;100976.39;106232;1259;98735;-84
2023/08/14 03:33:13;;;;;;;11.00;9.00;;;;;;;18.08;96.33;100975.19;106078;1259;98079;-83
2023/08/14 03:35:58;;;;;;;10.80;9.10;;;;;;;18.09;97.04;100972.79;106365;1259;98998;-82
2023/08/14 03:38:44;;;;;;;11.40;9.50;;;;;;;18.11;97.29;100973.11;106152;1259;101396;-83
2023/08/14 03:41:30;;;;;;;11.10;9.90;;;;;;;18.14;97.36;100975.81;106065;1260;99752;-83
2023/08/14 03:44:18;;;;;;;12.60;9.80;;;;;;;18.18;97.58;100981.40;105993;1263;97876;-83
2023/08/14 03:47:05;;;;;;;14.20;10.10;;;;;;;18.20;97.80;100980.63;105991;1262;99158;-81
2023/08/14 03:49:50;;;;;;;11.40;9.60;;;;;;;18.21;97.91;100981.03;106134;1259;98028;-81
2023/08/14 03:52:35;;;;;;;11.00;9.80;;;;;;;18.22;97.96;100979.30;106092;1259;101345;-82
2023/08/14 03:55:21;;;;;;;11.20;10.10;;;;;;;18.25;98.29;100980.94;105992;1259;100472;-80
2023/08/14 03:58:07;;;;;;;12.00;9.90;;;;;;;18.28;98.76;100981.14;105913;1263;98423;-81
2023/08/14 04:00:53;;;;;;;12.50;10.50;;;;;;;18.30;98.73;100987.77;106002;1260;97852;-81
2023/08/14 04:03:39;;;;;;;13.40;10.20;;;;;;;18.31;98.91;100989.88;106103;1261;98791;-81
2023/08/14 04:06:25;;;;;;;12.00;10.90;;;;;;;18.31;99.05;100991.39;106085;1260;102280;-82
2023/08/14 04:09:10;;;;;;;11.70;10.50;;;;;;;18.30;99.30;100993.36;106123;1263;100387;-82
2023/08/14 04:11:55;;;;;;;12.80;11.00;;;;;;;18.31;99.52;100994.67;106123;1259;99340;-81
2023/08/14 04:14:43;;;;;;;11.30;9.70;;;;;;;18.32;99.90;100991.42;106104;1264;99211;-80
2023/08/14 04:17:29;;;;;;;12.30;10.30;;;;;;;18.34;99.94;100992.73;106053;1259;98477;-80
2023/08/14 04:20:14;;;;;;;11.20;10.10;;;;;;;18.36;99.96;100990.72;106116;1259;101374;-80
2023/08/14 04:23:00;;;;;;;11.50;10.40;;;;;;;18.39;100.00;100997.56;106182;1261;99370;-79
2023/08/14 04:25:46;;;;;;;10.70;9.60;;;;;;;18.40;100.00;101003.36;106213;1262;97971;-81
2023/08/14 04:28:31;;;;;;;12.60;10.60;;;;;;;18.42;100.00;101002.81;106023;1259;98052;-82
2023/08/14 04:31:17;;;;;;;14.10;10.80;;;;;;;18.47;100.00;101006.60;106016;1259;98559;-81
2023/08/14 04:34:04;;;;;;;10.90;9.80;;;;;;;18.52;100.00;101011.13;105935;1263;101418;-81
2023/08/14 04:36:49;;;;;;;11.80;10.10;;;;;;;18.55;100.00;101011.48;105982;1259;99211;-81
2023/08/14 04:39:36;;;;;;;12.10;10.10;;;;;;;18.59;100.00;101011.75;106072;1262;98098;-81
2023/08/14 04:42:21;;;;;;;14.40;10.90;;;;;;;18.64;100.00;101011.86;106091;1262;97946;-82
2023/08/14 04:45:07;;;;;;;11.10;10.00;;;;;;;18.67;100.00;101021.07;106157;1263;97910;-82
2023/08/14 04:47:53;;;;;;;11.00;9.90;;;;;;;18.71;100.00;101022.52;105897;1259;101435;-82
2023/08/14 04:50:38;;;;;;;12.00;10.00;;;;;;;18.73;100.00;101025.64;106277;1259;99223;-85
2023/08/14 04:53:24;;;;;;;12.50;10.10;;;;;;;18.75;100.00;101031.70;106046;1263;98013;-87
2023/08/14 04:56:10;;;;;;;11.80;10.40;;;;;;;18.76;100.00;101035.40;106007;1260;97966;-83
2023/08/14 04:58:55;;;;;;;13.80;11.00;;;;;;;18.78;100.00;101038.95;106181;1260;97873;-83
2023/08/14 05:01:42;;;;;;;11.60;10.10;;;;;;;18.81;100.00;101034.48;106072;1259;101829;-82
2023/08/14 05:04:28;;;;;;;13.60;10.30;;;;;;;18.87;100.00;101034.52;106181;1259;100429;-85
2023/08/14 05:07:13;;;;;;;11.60;10.50;;;;;;;18.91;100.00;101033.68;106052;1264;98065;-83
2023/08/14 05:09:59;;;;;;;11.10;10.00;;;;;;;18.96;100.00;101036.48;106148;1259;98637;-81
2023/08/14 05:12:46;;;;;;;12.20;10.00;;;;;;;19.02;100.00;101036.95;106047;1263;98470;-81
2023/08/14 05:15:31;;;;;;;11.10;10.00;;;;;;;19.07;100.00;101039.92;106027;1264;101469;-82
2023/08/14 05:18:17;;;;;;;10.90;9.90;;;;;;;19.13;100.00;101044.64;105990;1260;99289;-82
2023/08/14 05:21:03;;;;;;;12.00;10.30;;;;;;;19.20;100.00;101047.13;105984;1263;99066;-81
2023/08/14 05:23:48;;;;;;;11.00;10.00;;;;;;;19.28;100.00;101047.14;106019;1259;97939;-84
2023/08/14 05:26:34;;;;;;;10.70;9.60;;;;;;;19.33;100.00;101047.77;105956;1259;97894;-82
2023/08/14 05:29:19;;;;;;;11.70;10.60;;;;;;;19.39;100.00;101048.48;105981;1259;102596;-83
2023/08/14 05:32:05;;;;;;;11.80;9.60;;;;;;;19.45;100.00;101048.26;106117;1262;99044;-82
2023/08/14 05:34:51;;;;;;;11.80;10.20;;;;;;;19.50;100.00;101046.21;106012;1260;97884;-83
2023/08/14 05:37:36;;;;;;;12.10;9.90;;;;;;;19.57;100.00;101043.64;105926;1259;97986;-82
2023/08/14 05:40:26;;;;;;;11.20;10.00;;;;;;;19.66;100.00;101042.85;105912;1264;97996;-82
2023/08/14 05:43:12;;;;;;;10.50;9.30;;;;;;;19.77;100.00;101037.14;106071;1259;110406;-82
2023/08/14 05:45:58;;;;;;;13.20;10.30;;;;;;;19.86;100.00;101035.92;105927;1259;100962;-81
2023/08/14 05:48:44;;;;;;;14.10;10.40;;;;;;;19.95;100.00;101030.02;105988;1259;98336;-84
2023/08/14 05:51:31;;;;;;;12.30;9.30;;;;;;;20.05;100.00;101027.85;106035;1259;98005;-82
2023/08/14 05:54:16;;;;;;;12.70;10.50;;;;;;;20.15;100.00;101025.61;105929;1259;97885;-84
2023/08/14 05:57:02;;;;;;;13.60;10.10;;;;;;;20.25;100.00;101025.41;105795;1259;102462;-82
2023/08/14 05:59:48;;;;;;;12.40;9.90;;;;;;;20.35;100.00;101029.35;106050;1259;99087;-82
2023/08/14 06:02:34;;;;;;;12.40;9.80;;;;;;;20.48;100.00;101032.23;105946;1264;99056;-82
2023/08/14 06:05:20;;;;;;;10.40;9.30;;;;;;;20.60;100.00;101039.51;105959;1259;97961;-83
2023/08/14 06:08:06;;;;;;;11.00;9.80;;;;;;;20.72;100.00;101044.58;105995;1259;98489;-82
2023/08/14 06:10:52;;;;;;;9.50;8.60;;;;;;;20.81;100.00;101044.20;106012;1263;101383;-81
2023/08/14 06:13:37;;;;;;;13.20;9.30;;;;;;;20.91;100.00;101045.88;105972;1259;100129;-82
2023/08/14 06:16:23;;;;;;;10.50;9.50;;;;;;;21.00;100.00;101045.77;106046;1264;97915;-81
2023/08/14 06:19:08;;;;;;;9.70;8.70;;;;;;;21.10;100.00;101046.31;105857;1259;98021;-83
2023/08/14 06:21:54;;;;;;;10.10;9.10;;;;;;;21.18;100.00;101048.09;106218;1260;98496;-83
2023/08/14 06:24:40;;;;;;;10.40;8.60;;;;;;;21.22;99.97;101046.36;105966;1259;101383;-83
2023/08/14 06:27:25;;;;;;;12.40;9.30;;;;;;;21.25;99.91;101047.23;105899;1259;99182;-83
2023/08/14 06:30:11;;;;;;;10.20;9.00;;;;;;;21.31;99.72;101047.89;105870;1261;98972;-82
2023/08/14 06:32:56;;;;;;;9.90;8.80;;;;;;;21.41;99.35;101040.10;105851;1259;98012;-81
2023/08/14 06:35:42;;;;;;;10.10;9.10;;;;;;;21.55;99.09;101043.39;106068;1259;98817;-83
2023/08/14 06:38:27;;;;;;;12.90;9.40;;;;;;;21.66;98.83;101046.29;105896;1262;102306;-82
2023/08/14 06:41:13;;;;;;;11.00;8.50;;;;;;;21.75;98.39;101047.64;106139;1259;99144;-82
2023/08/14 06:43:58;;;;;;;9.30;8.40;;;;;;;21.85;98.23;101041.82;106092;1259;97965;-82
2023/08/14 06:46:44;;;;;;;9.00;8.10;;;;;;;21.93;97.49;101042.48;106032;1260;97965;-82
2023/08/14 06:49:29;;;;;;;12.90;8.80;;;;;;;21.99;97.30;101037.45;106093;1262;98497;-82
2023/08/14 06:52:15;;;;;;;9.60;8.60;;;;;;;22.06;96.74;101034.89;105884;1260;102681;-82
2023/08/14 06:55:01;;;;;;;10.20;8.00;;;;;;;22.15;97.05;101039.32;106108;1261;99085;-86
2023/08/14 06:57:46;;;;;;;9.90;8.40;;;;;;;22.25;96.83;101040.39;106058;1260;99359;-85
2023/08/14 07:00:32;;;;;;;10.40;8.30;;;;;;;22.35;96.68;101039.20;106239;1259;97968;-87
2023/08/14 07:03:18;;;;;;;8.90;7.40;;;;;;;22.45;96.24;101034.91;106156;1259;98704;-84
2023/08/14 07:06:04;;;;;;;8.00;7.30;;;;;;;22.48;95.84;101033.85;105842;1263;102150;-81
2023/08/14 07:08:50;;;;;;;8.50;7.70;;;;;;;22.49;95.46;101036.22;106124;1263;99092;-87
2023/08/14 07:11:38;;;;;;;8.60;7.50;;;;;;;22.50;95.35;101034.59;105981;1259;97975;-84
2023/08/14 07:14:24;;;;;;;10.40;7.80;;;;;;;22.57;95.83;101036.16;105849;1259;97959;-85
2023/08/14 07:17:10;;;;;;;8.40;6.90;;;;;;;22.68;95.94;101037.13;105836;1259;98483;-82
2023/08/14 07:19:55;;;;;;;8.90;7.50;;;;;;;22.79;95.54;101043.71;105875;1259;102076;-82
2023/08/14 07:22:41;;;;;;;7.90;6.80;;;;;;;22.90;94.99;101052.73;105814;1263;99157;-83
2023/08/14 07:25:26;;;;;;;9.60;7.40;;;;;;;23.02;94.37;101052.09;105909;1262;97989;-84
2023/08/14 07:28:12;;;;;;;8.10;7.10;;;;;;;23.08;93.52;101051.99;106126;1263;98008;-83
2023/08/14 07:30:58;;;;;;;7.80;6.90;;;;;;;23.12;93.35;101055.73;105807;1259;99800;-83
2023/08/14 07:33:43;;;;;;;8.90;7.30;;;;;;;23.16;93.41;101054.91;105789;1262;102627;-84
2023/08/14 07:36:28;;;;;;;9.50;7.60;;;;;;;23.27;93.42;101050.54;105710;1263;99229;-83
2023/08/14 07:39:14;;;;;;;8.70;6.00;;;;;;;23.37;93.81;101050.70;105739;1265;98928;-84
2023/08/14 07:41:59;;;;;;;9.50;6.50;;;;;;;23.44;93.29;101048.38;106189;1259;98567;-85
2023/08/14 07:44:45;;;;;;;8.70;6.60;;;;;;;23.54;93.18;101046.27;105958;1264;99420;-86
2023/08/14 07:47:31;;;;;;;7.40;6.70;;;;;;;23.66;93.09;101038.42;106221;1262;102696;-85
2023/08/14 07:50:16;;;;;;;7.10;6.40;;;;;;;23.79;92.67;101042.57;105738;1264;99196;-84
2023/08/14 07:53:02;;;;;;;13.90;6.80;;;;;;;23.89;92.27;101042.09;105679;1259;97877;-85
2023/08/14 07:55:48;;;;;;;7.20;5.30;;;;;;;24.02;91.56;101045.10;105632;1259;95952;-85
2023/08/14 07:58:34;;;;;;;10.50;6.60;;;;;;;24.14;90.45;101048.38;105759;1259;97955;-84
2023/08/14 08:01:20;;;;;;;7.80;6.30;;;;;;;24.23;89.61;101052.85;105789;1259;102852;-84
2023/08/14 08:04:06;;;;;;;10.50;6.40;;;;;;;24.29;88.98;101056.92;106124;1263;100450;-86
2023/08/14 08:06:52;;;;;;;12.60;7.10;;;;;;;24.37;88.89;101057.41;105942;1260;97768;-85
2023/08/14 08:09:37;;;;;;;9.10;6.80;;;;;;;24.49;89.21;101058.02;105939;1263;97891;-84
2023/08/14 08:12:23;;;;;;;8.70;6.60;;;;;;;24.58;87.77;101058.16;106079;1259;97931;-84
2023/08/14 08:15:10;;;;;;;10.10;7.20;;;;;;;24.70;87.49;101056.14;105967;1264;101373;-83
2023/08/14 08:17:55;;;;;;;10.30;6.80;;;;;;;24.87;87.31;101055.33;105775;1259;99209;-86
2023/08/14 08:20:40;;;;;;;8.20;7.20;;;;;;;24.99;87.23;101059.10;105833;1265;97952;-84
2023/08/14 08:23:26;;;;;;;7.60;6.80;;;;;;;25.15;86.08;101062.48;105843;1264;97990;-84
2023/08/14 08:26:11;;;;;;;9.90;7.20;;;;;;;25.28;85.89;101062.10;105832;1262;99250;-85
2023/08/14 08:28:57;;;;;;;7.20;6.50;;;;;;;25.39;85.39;101061.52;105878;1260;103213;-85
2023/08/14 08:31:43;;;;;;;8.30;6.30;;;;;;;25.48;84.89;101064.73;105831;1259;107823;-84
2023/08/14 08:34:28;;;;;;;8.40;5.50;;;;;;;25.56;84.38;101066.66;105747;1265;98073;-84
2023/08/14 08:37:16;;;;;;;6.10;5.00;;;;;;;25.62;83.67;101068.84;105710;1259;97995;-84
2023/08/14 08:40:06;;;;;;;5.10;4.50;;;;;;;25.67;83.04;101069.23;105886;1259;98143;-84
2023/08/14 08:42:52;;;;;;;4.40;4.00;;;;;;;25.73;82.55;101068.46;105849;1259;102609;-84
2023/08/14 08:45:50;;;;;;;5.80;4.80;;;;;;;25.75;81.91;101065.05;106661;1259;99147;-85
2023/08/14 08:48:41;;;;;;;5.20;4.70;;;;;;;25.78;82.03;101060.57;105848;1260;97943;-85
2023/08/14 08:51:27;;;;;;;7.60;4.80;;;;;;;25.88;81.84;101058.02;105917;1264;98060;-85
2023/08/14 08:54:14;;;;;;;4.30;3.90;;;;;;;25.98;81.29;101054.81;105744;1259;98545;-86
2023/08/14 08:57:00;;;;;;;4.70;3.90;;;;;;;26.09;81.43;101055.03;105888;1263;101446;-84
2023/08/14 08:59:47;;;;;;;7.80;4.20;;;;;;;26.18;80.85;101049.80;105665;1260;99076;-86
2023/08/14 09:02:33;;;;;;;4.80;4.20;;;;;;;26.26;80.24;101047.25;106648;1264;97995;-85
2023/08/14 09:05:20;;;;;;;4.50;4.10;;;;;;;26.32;79.21;101043.50;105735;1259;98554;-84
2023/08/14 09:08:08;;;;;;;4.20;3.70;;;;;;;26.39;79.00;101044.09;105828;1264;97868;-83
2023/08/14 09:10:54;;;;;;;6.90;4.10;;;;;;;26.49;79.19;101036.80;105851;1260;102170;-86
2023/08/14 09:13:40;;;;;;;6.50;3.90;;;;;;;26.58;78.98;101032.45;105675;1259;99055;-86
2023/08/14 09:16:27;;;;;;;6.10;3.90;;;;;;;26.68;78.61;101034.61;105973;1264;99063;-85
2023/08/14 09:19:15;;;;;;;4.60;4.10;;;;;;;26.73;78.21;101031.20;106560;1268;97955;-85
2023/08/14 09:22:02;;;;;;;5.80;4.30;;;;;;;26.70;77.36;101028.34;105888;1259;97948;-85
2023/08/14 09:24:48;;;;;;;7.20;4.90;;;;;;;26.71;77.17;101028.98;105855;1259;177790;-85
2023/08/14 09:27:34;;;;;;;5.60;3.80;;;;;;;26.70;76.07;101023.60;105850;1267;99417;-86
2023/08/14 09:30:20;;;;;;;7.10;4.30;;;;;;;26.71;76.53;101019.92;105803;1259;97987;-85
2023/08/14 09:33:09;;;;;;;6.90;4.60;;;;;;;26.81;76.64;101017.80;105822;1263;97915;-86
2023/08/14 09:35:58;;;;;;;6.70;4.30;;;;;;;26.91;77.03;101015.66;105846;1259;98418;-84
2023/08/14 09:38:43;;;;;;;5.20;4.20;;;;;;;27.01;76.38;101009.74;105800;1259;101432;-85
2023/08/14 09:41:30;;;;;;;8.40;5.30;;;;;;;27.07;75.81;101003.23;105737;1264;99920;-85
2023/08/14 09:44:21;;;;;;;7.80;5.20;;;;;;;27.08;75.49;100999.48;105934;1259;99064;-85
2023/08/14 09:47:06;;;;;;;;;;;;;;;27.11;76.26;100995.71;105919;1264;98003;-86
2023/08/14 09:49:54;;;;;;;10.20;5.20;;;;;;;27.17;76.32;100998.91;106027;1259;96564;-86
2023/08/14 09:52:40;;;;;;;5.60;4.30;;;;;;;27.24;75.69;100997.45;105772;1259;101533;-85
2023/08/14 09:55:29;;;;;;;5.10;4.40;;;;;;;27.32;75.27;100993.02;105846;1260;99809;-85
2023/08/14 09:58:14;;;;;;;8.30;5.00;;;;;;;27.38;75.49;100994.75;105768;1265;99075;-84
2023/08/14 10:01:01;;;;;;;7.40;4.60;;;;;;;27.44;75.59;100990.46;105716;1264;98059;-84
2023/08/14 10:03:52;;;;;;;4.90;4.40;;;;;;;27.52;75.73;100989.84;105900;1260;97898;-84
2023/08/14 10:06:38;;;;;;;5.30;4.00;;;;;;;27.61;75.16;100990.36;105732;1265;101508;-85
2023/08/14 10:09:27;;;;;;;4.70;4.30;;;;;;;27.69;74.71;100991.46;105873;1264;99960;-86
2023/08/14 10:12:16;;;;;;;4.90;4.40;;;;;;;27.77;74.43;100991.82;105669;1265;97966;-84
2023/08/14 10:15:11;;;;;;;6.10;3.90;;;;;;;27.84;73.50;100993.27;105845;1265;98079;-84
2023/08/14 10:18:03;;;;;;;4.70;4.00;;;;;;;27.89;73.38;100998.83;105795;1259;98400;-83
2023/08/14 10:20:51;;;;;;;9.60;4.20;;;;;;;27.96;72.99;101006.83;105771;1260;101447;-85
2023/08/14 10:23:38;;;;;;;4.40;4.00;;;;;;;27.98;72.37;101010.60;105966;1259;99239;-84
2023/08/14 10:26:24;;;;;;;4.20;3.90;;;;;;;28.00;72.76;101015.88;105935;1264;98582;-85
2023/08/14 10:29:10;;;;;;;8.00;4.70;;;;;;;28.05;72.10;101013.30;105761;1259;98052;-84
2023/08/14 10:31:56;;;;;;;6.60;4.00;;;;;;;28.11;72.06;101011.85;105796;1265;98409;-84
2023/08/14 10:34:42;;;;;;;5.50;4.30;;;;;;;28.16;72.20;101009.52;105789;1260;101316;-85
2023/08/14 10:37:41;;;;;;;5.40;4.20;;;;;;;28.20;71.45;101006.55;105781;1259;99161;-85
2023/08/14 10:40:27;;;;;;;7.50;4.30;;;;;;;28.27;71.21;101006.09;105829;1265;100136;-82
2023/08/14 10:43:13;;;;;;;6.70;4.30;;;;;;;28.34;70.99;101004.20;106009;1259;97881;-84
2023/08/14 10:45:59;;;;;;;5.00;3.70;;;;;;;28.40;70.81;101000.80;106011;1262;98492;-84
2023/08/14 10:48:48;;;;;;;6.40;4.00;;;;;;;28.46;70.90;101001.55;105922;1259;102658;-84
2023/08/14 10:51:34;;;;;;;6.60;3.80;;;;;;;28.50;70.75;100999.41;107020;1265;99186;-85
2023/08/14 10:54:21;;;;;;;6.20;3.40;;;;;;;28.56;70.55;100993.61;105898;1259;97975;-85
2023/08/14 10:57:13;;;;;;;4.80;3.60;;;;;;;28.65;70.11;100992.67;105932;1260;98680;-85
2023/08/14 10:59:59;;;;;;;6.10;3.60;;;;;;;28.69;69.27;100992.79;105871;1263;97956;-85
2023/08/14 11:02:50;;;;;;;4.10;3.30;;;;;;;28.71;68.63;100991.37;105950;1259;101461;-84
2023/08/14 11:05:37;;;;;;;3.50;3.20;;;;;;;28.74;68.65;100988.18;105992;1259;99105;-83
2023/08/14 11:08:23;;;;;;;7.30;3.50;;;;;;;28.81;68.77;100987.84;105646;1260;97931;-83
2023/08/14 11:11:10;;;;;;;4.40;3.20;;;;;;;28.86;67.87;100992.58;105756;1259;98045;-83
2023/08/14 11:13:56;;;;;;;5.50;3.20;;;;;;;28.92;67.42;100994.58;105890;1260;98489;-84
2023/08/14 11:16:47;;;;;;;3.90;2.90;;;;;;;29.00;67.07;100997.05;105836;1259;103168;-83
2023/08/14 11:19:34;;;;;;;5.40;2.60;;;;;;;29.08;66.43;100995.00;105741;1264;99849;-84
2023/08/14 11:22:24;;;;;;;4.00;3.00;;;;;;;29.11;64.82;100992.35;105801;1259;97973;-84
2023/08/14 11:25:11;;;;;;;3.60;2.80;;;;;;;29.12;64.58;100991.64;105838;1263;97906;-83
2023/08/14 11:27:57;;;;;;;5.70;3.10;;;;;;;29.14;65.08;100984.15;105811;1263;99494;-83
2023/08/14 11:30:44;;;;;;;2.90;2.60;;;;;;;29.22;65.46;100981.80;105859;1263;102527;-83
2023/08/14 11:33:31;;;;;;;4.70;2.70;;;;;;;29.26;64.32;100982.05;105982;1263;99225;-84
2023/08/14 11:36:16;;;;;;;3.30;2.80;;;;;;;29.29;64.47;100977.87;105673;1265;98077;-83
2023/08/14 11:39:03;;;;;;;4.90;2.70;;;;;;;29.35;64.74;100977.20;105788;1259;98075;-84
2023/08/14 11:41:49;;;;;;;6.20;2.70;;;;;;;29.46;64.49;100979.95;105861;1263;97922;-83
2023/08/14 11:44:35;;;;;;;3.90;2.90;;;;;;;29.54;63.58;100979.36;105974;1260;101413;-83
2023/08/14 11:47:21;;;;;;;8.00;2.70;;;;;;;29.57;63.57;100974.89;105806;1264;99087;-85
2023/08/14 11:50:07;;;;;;;6.50;3.70;;;;;;;29.60;63.53;100974.53;105756;1260;98036;-84
2023/08/14 11:52:53;;;;;;;6.10;3.60;;;;;;;29.65;63.62;100971.20;105922;1260;95972;-84
2023/08/14 11:55:39;;;;;;;3.50;3.00;;;;;;;29.68;63.77;100971.36;105825;1259;98399;-84
2023/08/14 11:58:25;;;;;;;3.00;2.70;;;;;;;29.77;63.67;100968.45;105777;1260;101357;-84
2023/08/14 12:01:11;;;;;;;3.50;3.00;;;;;;;29.90;63.43;100966.13;105851;1263;100425;-84
2023/08/14 12:03:56;;;;;;;3.80;3.20;;;;;;;29.99;63.46;100959.64;105718;1259;97978;-83
2023/08/14 12:06:42;;;;;;;4.50;2.90;;;;;;;30.06;63.33;100956.73;105695;1259;97903;-84
2023/08/14 12:09:28;;;;;;;5.80;3.00;;;;;;;30.15;63.65;100954.55;105868;1265;98483;-84
2023/08/14 12:12:14;;;;;;;7.90;3.80;;;;;;;30.25;63.24;100952.23;105745;1260;102071;-84
2023/08/14 12:15:00;;;;;;;4.50;3.40;;;;;;;30.32;63.04;100952.34;105842;1260;99646;-85
2023/08/14 12:17:46;;;;;;;4.80;3.30;;;;;;;30.36;62.61;100947.71;105662;1265;97901;-86
2023/08/14 12:20:33;;;;;;;3.40;2.90;;;;;;;30.35;62.52;100945.19;105803;1260;98051;-85
2023/08/14 12:23:22;;;;;;;3.80;3.20;;;;;;;30.41;62.79;100944.63;105798;1260;98498;-85
2023/08/14 12:26:08;;;;;;;5.20;3.10;;;;;;;30.51;62.81;100945.08;105874;1275;101404;-85
2023/08/14 12:28:53;;;;;;;5.10;3.30;;;;;;;30.54;62.57;100942.67;105828;1260;100865;-85
2023/08/14 12:31:39;;;;;;;6.10;3.50;;;;;;;30.59;62.44;100938.75;105777;1260;98061;-83
2023/08/14 12:34:26;;;;;;;5.10;3.70;;;;;;;30.68;62.36;100941.85;105824;1263;97986;-84
2023/08/14 12:37:14;;;;;;;3.90;3.30;;;;;;;30.77;61.84;100939.73;105740;1259;98489;-84